createdAt,value
2023-01-29T00:00:37.045Z,73.63
2023-01-29T00:03:45.683Z,73.71
2023-01-29T00:07:00.731Z,73.93
2023-01-29T00:10:09.719Z,74.12
2023-01-29T00:13:18.580Z,74.06
2023-01-29T00:16:26.720Z,73.92
2023-01-29T00:19:36.115Z,74.29
2023-01-29T00:22:44.775Z,74.63
2023-01-29T00:25:53.335Z,74.92
2023-01-29T00:29:02.731Z,75.07
2023-01-29T00:32:17.799Z,75.20
2023-01-29T00:35:19.725Z,75.27
2023-01-29T00:38:34.707Z,75.50
2023-01-29T00:41:43.425Z,75.69
2023-01-29T00:44:51.736Z,76.15
2023-01-29T00:48:00.473Z,76.50
2023-01-29T00:51:17.736Z,76.84
2023-01-29T00:54:26.503Z,76.90
2023-01-29T00:57:37.776Z,76.91
2023-01-29T01:00:46.640Z,76.87
2023-01-29T01:03:55.703Z,77.14
2023-01-29T01:10:18.354Z,77.42
2023-01-29T01:13:32.746Z,78.22
2023-01-29T01:16:34.600Z,77.84
2023-01-29T01:19:49.717Z,77.78
2023-01-29T01:23:00.758Z,78.22
2023-01-29T01:26:10.101Z,78.03
2023-01-29T01:29:18.712Z,77.81
2023-01-29T01:32:28.364Z,77.70
2023-01-29T01:35:36.753Z,77.97
2023-01-29T01:38:45.370Z,77.80
2023-01-29T01:41:53.807Z,77.94
2023-01-29T01:45:12.733Z,78.09
2023-01-29T01:48:26.668Z,77.79
2023-01-29T01:51:53.712Z,78.04
2023-01-29T01:54:55.686Z,77.92
2023-01-29T01:58:18.768Z,77.63
2023-01-29T02:01:33.721Z,78.57
2023-01-29T02:04:35.592Z,78.75
2023-01-29T02:07:53.788Z,79.33
2023-01-29T02:11:02.714Z,79.55
2023-01-29T02:14:18.744Z,79.33
2023-01-29T02:17:26.779Z,79.27
2023-01-29T02:20:44.730Z,78.89
2023-01-29T02:24:36.792Z,78.59
2023-01-29T02:28:02.792Z,79.23
2023-01-29T02:31:25.798Z,79.33
2023-01-29T02:34:58.797Z,78.93
2023-01-29T02:38:30.735Z,79.18
2023-01-29T02:41:43.793Z,79.27
2023-01-29T02:45:05.745Z,79.60
2023-01-29T02:48:15.785Z,78.99
2023-01-29T02:51:50.767Z,79.47
2023-01-29T02:55:15.783Z,79.25
2023-01-29T02:58:29.115Z,79.05
2023-01-29T03:01:51.790Z,79.30
2023-01-29T03:04:59.992Z,79.57
2023-01-29T03:08:18.796Z,79.66
2023-01-29T03:11:21.194Z,79.49
2023-01-29T03:14:44.896Z,79.40
2023-01-29T03:17:56.843Z,79.39
2023-01-29T03:21:17.766Z,79.64
2023-01-29T03:24:36.747Z,79.56
2023-01-29T03:27:53.737Z,79.28
2023-01-29T03:31:03.811Z,78.67
2023-01-29T03:34:17.302Z,78.88
2023-01-29T03:37:33.763Z,78.56
2023-01-29T03:40:59.769Z,77.59
2023-01-29T03:44:14.637Z,77.64
2023-01-29T03:47:43.882Z,77.91
2023-01-29T03:51:01.831Z,77.86
2023-01-29T03:54:29.778Z,77.54
2023-01-29T03:57:37.708Z,77.73
2023-01-29T04:01:02.827Z,77.58
2023-01-29T04:04:15.042Z,77.54
2023-01-29T04:07:31.803Z,77.06
2023-01-29T04:10:44.789Z,77.17
2023-01-29T04:13:53.939Z,77.41
2023-01-29T04:17:06.771Z,76.86
2023-01-29T04:20:16.401Z,76.25
2023-01-29T04:23:33.763Z,75.93
2023-01-29T04:27:04.817Z,75.64
2023-01-29T04:30:32.896Z,75.81
2023-01-29T04:34:10.859Z,76.05
2023-01-29T04:37:21.028Z,76.32
2023-01-29T04:40:50.057Z,76.03
2023-01-29T04:44:08.115Z,75.68
2023-01-29T04:47:37.891Z,75.95
2023-01-29T04:51:10.703Z,75.63
2023-01-29T04:54:29.779Z,74.87
2023-01-29T04:58:11.855Z,74.87
2023-01-29T05:01:24.774Z,75.00
2023-01-29T05:04:35.680Z,75.09
2023-01-29T05:07:45.813Z,74.41
2023-01-29T05:10:57.396Z,74.37
2023-01-29T05:14:09.831Z,74.50
2023-01-29T05:17:26.813Z,73.93
2023-01-29T05:20:34.065Z,73.88
2023-01-29T05:23:48.850Z,74.11
2023-01-29T05:26:53.654Z,73.98
2023-01-29T05:30:08.780Z,74.32
2023-01-29T05:33:31.813Z,74.00
2023-01-29T05:36:33.589Z,73.68
2023-01-29T05:39:48.803Z,73.59
2023-01-29T05:42:50.878Z,73.28
2023-01-29T05:46:06.842Z,72.92
2023-01-29T05:49:08.934Z,72.98
2023-01-29T05:52:30.815Z,73.07
2023-01-29T05:55:38.880Z,72.88
2023-01-29T05:58:47.584Z,73.33
2023-01-29T06:01:55.846Z,73.17
2023-01-29T06:05:10.824Z,72.85
2023-01-29T06:08:18.841Z,72.59
2023-01-29T06:11:33.851Z,72.97
2023-01-29T06:14:35.759Z,73.24
2023-01-29T06:17:50.826Z,73.35
2023-01-29T06:20:53.212Z,73.90
2023-01-29T06:24:08.820Z,73.55
2023-01-29T06:27:10.732Z,73.86
2023-01-29T06:30:26.828Z,73.59
2023-01-29T06:33:35.833Z,74.14
2023-01-29T06:36:44.436Z,74.29
2023-01-29T06:39:53.008Z,74.21
2023-01-29T06:43:01.480Z,74.54
2023-01-29T06:46:13.805Z,75.39
2023-01-29T06:49:22.572Z,75.37
2023-01-29T06:52:43.848Z,76.00
2023-01-29T06:55:51.752Z,75.99
2023-01-29T06:59:06.927Z,75.96
2023-01-29T07:02:15.903Z,75.82
2023-01-29T07:05:30.859Z,75.80
2023-01-29T07:08:39.951Z,76.19
2023-01-29T07:11:55.845Z,75.92
2023-01-29T07:14:57.867Z,76.31
2023-01-29T07:18:12.828Z,76.16
2023-01-29T07:21:21.890Z,76.64
2023-01-29T07:24:36.843Z,75.88
2023-01-29T07:27:44.901Z,75.61
2023-01-29T07:31:04.930Z,75.98
2023-01-29T07:34:13.836Z,75.71
2023-01-29T07:37:22.564Z,75.57
2023-01-29T07:40:31.878Z,75.61
2023-01-29T07:43:40.518Z,75.62
2023-01-29T07:46:49.854Z,75.56
2023-01-29T07:50:12.859Z,75.61
2023-01-29T07:53:27.830Z,74.87
2023-01-29T07:56:36.492Z,75.21
2023-01-29T07:59:44.853Z,74.45
2023-01-29T08:03:00.964Z,74.74
2023-01-29T08:06:04.407Z,74.51
2023-01-29T08:09:22.051Z,74.41
2023-01-29T08:12:30.841Z,74.72
2023-01-29T08:15:43.503Z,73.86
2023-01-29T08:18:51.883Z,73.88
2023-01-29T08:22:00.800Z,73.27
2023-01-29T08:25:08.936Z,73.16
2023-01-29T08:28:23.870Z,73.35
2023-01-29T08:31:53.726Z,72.36
2023-01-29T08:35:08.891Z,72.40
2023-01-29T08:38:10.760Z,71.95
2023-01-29T08:41:25.871Z,71.58
2023-01-29T08:44:27.809Z,70.98
2023-01-29T08:47:42.845Z,70.66
2023-01-29T08:50:51.907Z,71.20
2023-01-29T08:54:00.887Z,71.16
2023-01-29T08:57:08.860Z,71.47
2023-01-29T09:00:19.155Z,71.05
2023-01-29T09:03:27.928Z,72.29
2023-01-29T09:06:42.925Z,72.06
2023-01-29T09:09:44.800Z,71.77
2023-01-29T09:12:59.885Z,71.59
2023-01-29T09:16:03.175Z,70.93
2023-01-29T09:19:17.997Z,70.46
2023-01-29T09:22:26.888Z,70.57
2023-01-29T09:25:42.891Z,69.97
2023-01-29T09:28:50.923Z,70.00
2023-01-29T09:32:05.879Z,70.37
2023-01-29T09:35:16.180Z,70.14
2023-01-29T09:38:24.592Z,70.32
2023-01-29T09:41:58.899Z,69.47
2023-01-29T09:45:20.908Z,68.77
2023-01-29T09:48:33.458Z,69.10
2023-01-29T09:51:53.917Z,68.98
2023-01-29T09:55:20.411Z,69.23
2023-01-29T09:58:38.901Z,69.32
2023-01-29T10:02:08.003Z,69.35
2023-01-29T10:05:33.131Z,69.74
2023-01-29T10:09:08.947Z,69.37
2023-01-29T10:12:40.756Z,68.58
2023-01-29T10:16:14.904Z,67.88
2023-01-29T10:19:55.915Z,67.85
2023-01-29T10:23:27.932Z,67.65
2023-01-29T10:26:42.999Z,66.67
2023-01-29T10:29:46.905Z,66.83
2023-01-29T10:33:05.906Z,66.32
2023-01-29T10:36:21.201Z,67.32
2023-01-29T10:39:32.976Z,67.25
2023-01-29T10:42:50.009Z,67.69
2023-01-29T10:46:17.924Z,66.48
2023-01-29T10:49:55.895Z,66.47
2023-01-29T10:53:33.917Z,66.45
2023-01-29T10:56:59.924Z,66.21
2023-01-29T11:00:13.734Z,66.05
2023-01-29T11:03:29.433Z,66.10
2023-01-29T11:06:43.908Z,65.17
2023-01-29T11:10:09.026Z,65.12
2023-01-29T11:13:18.514Z,65.26
2023-01-29T11:16:26.943Z,64.88
2023-01-29T11:19:47.937Z,64.83
2023-01-29T11:22:54.144Z,63.76
2023-01-29T11:26:09.938Z,63.30
2023-01-29T11:29:32.119Z,63.14
2023-01-29T11:32:47.909Z,62.62
2023-01-29T11:35:56.923Z,63.25
2023-01-29T11:39:23.952Z,62.79
2023-01-29T11:42:31.480Z,62.33
2023-01-29T11:45:46.955Z,62.73
2023-01-29T11:49:05.852Z,62.65
2023-01-29T11:52:40.424Z,62.03
2023-01-29T11:55:53.936Z,62.26
2023-01-29T11:59:03.039Z,62.03
2023-01-29T12:02:31.942Z,61.63
2023-01-29T12:05:48.917Z,61.29
2023-01-29T12:09:01.704Z,60.94
2023-01-29T12:12:34.040Z,60.02
2023-01-29T12:15:49.984Z,60.07
2023-01-29T12:19:04.901Z,60.39
2023-01-29T12:22:26.648Z,60.36
2023-01-29T12:25:50.945Z,59.52
2023-01-29T12:29:31.942Z,58.54
2023-01-29T12:32:49.616Z,58.68
2023-01-29T12:36:33.988Z,56.77
2023-01-29T12:39:42.864Z,56.04
2023-01-29T12:43:05.041Z,53.85
2023-01-29T12:46:28.003Z,54.94
2023-01-29T12:49:39.659Z,54.93
2023-01-29T12:53:01.989Z,54.48
2023-01-29T12:56:29.121Z,53.97
2023-01-29T12:59:45.965Z,54.04
2023-01-29T13:03:00.755Z,55.45
2023-01-29T13:06:21.967Z,55.38
2023-01-29T13:09:34.667Z,54.26
2023-01-29T13:12:45.971Z,54.13
2023-01-29T13:16:03.003Z,54.39
2023-01-29T13:19:24.436Z,55.65
2023-01-29T13:22:44.948Z,55.60
2023-01-29T13:25:50.690Z,55.24
2023-01-29T13:29:04.988Z,56.28
2023-01-29T13:32:09.377Z,57.29
2023-01-29T13:35:27.000Z,57.56
2023-01-29T13:38:39.008Z,56.92
2023-01-29T13:41:49.969Z,57.69
2023-01-29T13:45:03.058Z,58.33
2023-01-29T13:48:31.004Z,58.27
2023-01-29T13:51:39.522Z,57.96
2023-01-29T13:54:59.953Z,58.94
2023-01-29T13:58:17.080Z,59.13
2023-01-29T14:01:52.004Z,59.23
2023-01-29T14:05:13.999Z,59.30
2023-01-29T14:08:45.955Z,59.79
2023-01-29T14:11:48.537Z,60.48
2023-01-29T14:15:21.761Z,61.01
2023-01-29T14:18:33.415Z,61.29
2023-01-29T14:21:43.988Z,61.14
2023-01-29T14:25:05.040Z,61.15
2023-01-29T14:28:29.978Z,61.48
2023-01-29T14:31:51.041Z,62.03
2023-01-29T14:35:04.994Z,62.36
2023-01-29T14:38:21.995Z,62.31
2023-01-29T14:41:31.772Z,62.44
2023-01-29T14:45:06.006Z,61.74
2023-01-29T14:48:37.413Z,62.33
2023-01-29T14:51:52.048Z,61.63
2023-01-29T14:55:22.008Z,61.88
2023-01-29T14:58:40.045Z,62.80
2023-01-29T15:02:02.075Z,62.26
2023-01-29T15:05:18.023Z,61.61
2023-01-29T15:08:41.980Z,62.50
2023-01-29T15:12:05.983Z,62.17
2023-01-29T15:15:28.123Z,62.42
2023-01-29T15:18:44.070Z,62.63
2023-01-29T15:22:18.962Z,62.68
2023-01-29T15:25:34.647Z,62.65
2023-01-29T15:28:47.230Z,62.17
2023-01-29T15:32:07.992Z,62.25
2023-01-29T15:35:35.016Z,63.11
2023-01-29T15:38:37.120Z,63.13
2023-01-29T15:41:53.012Z,63.55
2023-01-29T15:44:55.492Z,63.54
2023-01-29T15:48:19.036Z,63.59
2023-01-29T15:51:25.036Z,63.79
2023-01-29T15:54:46.991Z,63.80
2023-01-29T15:58:02.070Z,63.81
2023-01-29T16:01:04.211Z,63.35
2023-01-29T16:04:27.020Z,63.15
2023-01-29T16:07:30.143Z,63.45
2023-01-29T16:10:48.021Z,63.26
2023-01-29T16:13:57.550Z,63.46
2023-01-29T16:17:29.047Z,63.65
2023-01-29T16:20:52.086Z,64.45
2023-01-29T16:24:06.270Z,63.89
2023-01-29T16:27:20.056Z,63.48
2023-01-29T16:30:29.201Z,64.16
2023-01-29T16:33:43.049Z,64.63
2023-01-29T16:37:00.032Z,65.11
2023-01-29T16:40:22.056Z,64.38
2023-01-29T16:43:54.046Z,64.86
2023-01-29T16:47:11.775Z,64.34
2023-01-29T16:50:54.204Z,64.75
2023-01-29T16:54:21.108Z,65.41
2023-01-29T16:57:33.307Z,65.26
2023-01-29T17:00:54.103Z,65.32
2023-01-29T17:04:04.499Z,65.22
2023-01-29T17:07:24.041Z,64.67
2023-01-29T17:10:41.055Z,65.34
2023-01-29T17:13:52.064Z,65.56
2023-01-29T17:17:11.049Z,65.24
2023-01-29T17:20:16.195Z,65.41
2023-01-29T17:23:32.041Z,66.07
2023-01-29T17:26:44.267Z,66.18
2023-01-29T17:30:01.016Z,65.93
2023-01-29T17:33:15.725Z,65.91
2023-01-29T17:36:30.096Z,66.24
2023-01-29T17:39:39.062Z,66.13
2023-01-29T17:42:47.960Z,66.21
2023-01-29T17:45:56.091Z,66.16
2023-01-29T17:49:19.261Z,66.28
2023-01-29T17:52:28.076Z,67.05
2023-01-29T17:55:43.093Z,67.10
2023-01-29T17:58:45.275Z,67.08
2023-01-29T18:02:01.137Z,68.08
2023-01-29T18:05:03.256Z,67.40
2023-01-29T18:08:32.040Z,67.40
2023-01-29T18:11:49.066Z,67.55
2023-01-29T18:14:57.944Z,68.21
2023-01-29T18:18:07.101Z,67.40
2023-01-29T18:21:16.140Z,67.32
2023-01-29T18:24:25.049Z,67.07
2023-01-29T18:27:34.776Z,67.29
2023-01-29T18:30:43.130Z,67.11
2023-01-29T18:33:59.080Z,67.65
2023-01-29T18:37:01.146Z,67.43
2023-01-29T18:40:18.090Z,67.75
2023-01-29T18:43:20.154Z,67.10
2023-01-29T18:46:35.101Z,66.99
2023-01-29T18:49:37.156Z,67.83
2023-01-29T18:52:52.063Z,67.98
2023-01-29T18:56:02.400Z,67.50
2023-01-29T18:59:18.097Z,67.38
2023-01-29T19:02:27.185Z,67.65
2023-01-29T19:05:36.056Z,67.50
2023-01-29T19:08:51.049Z,67.72
2023-01-29T19:12:00.122Z,67.51
2023-01-29T19:15:10.672Z,67.15
2023-01-29T19:18:26.079Z,67.33
2023-01-29T19:21:35.220Z,67.89
2023-01-29T19:24:44.072Z,67.08
2023-01-29T19:27:53.087Z,67.78
2023-01-29T19:31:09.143Z,68.09
2023-01-29T19:34:18.124Z,68.24
2023-01-29T19:37:28.044Z,67.94
2023-01-29T19:40:43.109Z,68.13
2023-01-29T19:43:45.153Z,67.42
2023-01-29T19:47:01.092Z,67.21
2023-01-29T19:50:11.120Z,67.98
2023-01-29T19:53:28.730Z,68.14
2023-01-29T19:56:38.106Z,68.03
2023-01-29T19:59:46.817Z,68.02
2023-01-29T20:02:55.126Z,68.70
2023-01-29T20:06:06.017Z,68.25
2023-01-29T20:09:21.148Z,68.44
2023-01-29T20:12:30.095Z,67.81
2023-01-29T20:15:42.868Z,68.08
2023-01-29T20:19:14.377Z,68.12
2023-01-29T20:22:17.173Z,68.25
2023-01-29T20:25:32.125Z,67.87
2023-01-29T20:28:48.124Z,68.80
2023-01-29T20:31:57.325Z,68.85
2023-01-29T20:35:13.111Z,68.89
2023-01-29T20:38:22.089Z,68.56
2023-01-29T20:41:31.125Z,69.07
2023-01-29T20:44:46.134Z,68.47
2023-01-29T20:47:49.490Z,68.45
2023-01-29T20:51:11.113Z,68.58
2023-01-29T20:54:33.330Z,69.47
2023-01-29T20:57:37.773Z,69.21
2023-01-29T21:00:52.147Z,69.01
2023-01-29T21:04:00.715Z,69.13
2023-01-29T21:07:09.184Z,69.41
2023-01-29T21:10:18.350Z,69.63
2023-01-29T21:13:27.112Z,69.30
2023-01-29T21:16:36.034Z,69.31
2023-01-29T21:19:45.136Z,69.73
2023-01-29T21:23:00.115Z,69.16
2023-01-29T21:26:04.873Z,69.67
2023-01-29T21:29:20.112Z,69.38
2023-01-29T21:32:28.092Z,69.24
2023-01-29T21:35:36.815Z,69.92
2023-01-29T21:38:46.171Z,69.03
2023-01-29T21:41:55.021Z,69.88
2023-01-29T21:45:03.151Z,69.33
2023-01-29T21:48:11.849Z,70.07
2023-01-29T21:51:26.121Z,69.79
2023-01-29T21:54:34.461Z,69.99
2023-01-29T21:57:50.137Z,70.27
2023-01-29T22:00:52.062Z,69.98
2023-01-29T22:04:07.137Z,70.17
2023-01-29T22:07:16.175Z,70.14
2023-01-29T22:10:24.764Z,70.36
2023-01-29T22:13:33.120Z,70.26
2023-01-29T22:16:41.799Z,70.16
2023-01-29T22:19:50.139Z,70.44
2023-01-29T22:22:58.790Z,70.33
2023-01-29T22:26:12.207Z,69.92
2023-01-29T22:29:27.180Z,70.42
2023-01-29T22:32:29.109Z,69.68
2023-01-29T22:35:45.179Z,70.17
2023-01-29T22:38:47.043Z,69.82
2023-01-29T22:42:02.165Z,69.79
2023-01-29T22:45:11.159Z,69.79
2023-01-29T22:48:19.787Z,69.59
2023-01-29T22:51:29.164Z,69.87
2023-01-29T22:54:44.720Z,70.21
2023-01-29T22:57:55.140Z,70.00
2023-01-29T23:01:04.421Z,69.80
2023-01-29T23:04:13.165Z,69.31
2023-01-29T23:07:28.152Z,69.54
2023-01-29T23:10:30.017Z,69.64
2023-01-29T23:13:45.203Z,69.98
2023-01-29T23:16:47.051Z,69.05
2023-01-29T23:20:02.195Z,68.61
2023-01-29T23:23:17.177Z,68.37
2023-01-29T23:26:19.164Z,68.58
2023-01-29T23:29:34.141Z,69.34
2023-01-29T23:32:36.902Z,69.64
2023-01-29T23:35:51.197Z,69.88
2023-01-29T23:38:53.012Z,70.45
2023-01-29T23:42:09.163Z,70.80
2023-01-29T23:45:18.176Z,70.90
2023-01-29T23:48:26.852Z,70.40
2023-01-29T23:51:35.229Z,70.91
2023-01-29T23:54:50.457Z,70.73
2023-01-29T23:57:59.158Z,70.85
